Time;durP1;ratioP1;P1;durP2;ratioP2;P2;SDS_P1;SDS_P2;PMS_P1;PMS_P2;Temp;Humidity;BMP_temperature;BMP_pressure;BME280_temperature;BME280_humidity;BME280_pressure;Samples;Min_cycle;Max_cycle;Signal;HPM_P1;HPM_P2
2023/03/03 00:02:27;;;;;;;133.57;25.23;;;;;;;;;;5072704;28;20487;-89
2023/03/03 00:05:17;;;;;;;76.47;20.70;;;;;;;;;;5057517;28;20040;-88
2023/03/03 00:08:04;;;;;;;65.20;20.93;;;;;;;;;;5057451;28;20404;-88
2023/03/03 00:10:49;;;;;;;70.63;21.00;;;;;;;;;;5057118;28;20170;-88
2023/03/03 00:13:51;;;;;;;141.87;25.50;;;;;;;;;;5072310;28;20070;-88
2023/03/03 00:16:39;;;;;;;107.50;23.77;;;;;;;;;;5072293;28;20040;-88
2023/03/03 00:19:24;;;;;;;85.93;23.50;;;;;;;;;;5057307;28;20086;-88
2023/03/03 00:22:15;;;;;;;188.07;25.00;;;;;;;;;;5073067;28;20031;-89
2023/03/03 00:25:19;;;;;;;167.13;26.73;;;;;;;;;;5057505;28;20398;-88
2023/03/03 00:28:22;;;;;;;143.40;22.43;;;;;;;;;;5057341;28;20077;-88
2023/03/03 00:31:16;;;;;;;119.13;21.95;;;;;;;;;;5057471;28;20071;-89
2023/03/03 00:34:17;;;;;;;95.23;21.73;;;;;;;;;;5057264;28;20404;-88
2023/03/03 00:37:02;;;;;;;145.90;26.50;;;;;;;;;;5057419;28;20503;-88
2023/03/03 00:39:46;;;;;;;138.30;25.13;;;;;;;;;;5056817;28;20036;-88
2023/03/03 00:42:35;;;;;;;135.27;23.33;;;;;;;;;;5057236;28;20035;-88
2023/03/03 00:45:42;;;;;;;105.67;22.70;;;;;;;;;;5057123;28;20083;-88
2023/03/03 00:48:33;;;;;;;93.13;20.00;;;;;;;;;;5057102;28;20086;-88
2023/03/03 00:51:26;;;;;;;79.77;20.43;;;;;;;;;;5057277;28;20086;-88
2023/03/03 00:54:13;;;;;;;250.50;31.20;;;;;;;;;;5057338;28;20040;-88
2023/03/03 00:57:00;;;;;;;67.03;20.13;;;;;;;;;;5056769;28;20435;-88
2023/03/03 00:59:45;;;;;;;156.97;25.17;;;;;;;;;;5056716;28;20530;-89
2023/03/03 01:02:29;;;;;;;109.83;23.63;;;;;;;;;;5056971;28;20434;-88
2023/03/03 01:05:15;;;;;;;91.77;20.17;;;;;;;;;;5057337;28;20170;-88
2023/03/03 01:08:00;;;;;;;162.67;23.47;;;;;;;;;;5058699;28;20556;-88
2023/03/03 01:10:49;;;;;;;84.33;19.57;;;;;;;;;;5060511;28;20039;-88
2023/03/03 01:13:35;;;;;;;90.33;21.13;;;;;;;;;;5060838;28;20071;-88
2023/03/03 01:16:20;;;;;;;230.40;26.60;;;;;;;;;;5060915;28;20039;-88
2023/03/03 01:19:05;;;;;;;275.97;27.27;;;;;;;;;;5061028;28;20531;-88
2023/03/03 01:21:49;;;;;;;94.53;19.50;;;;;;;;;;5060232;28;20163;-88
2023/03/03 01:24:34;;;;;;;142.53;22.20;;;;;;;;;;5060279;28;20040;-88
2023/03/03 01:27:28;;;;;;;186.07;24.40;;;;;;;;;;5060212;28;20040;-88
2023/03/03 01:30:14;;;;;;;253.83;28.47;;;;;;;;;;5060306;28;20043;-88
2023/03/03 01:33:01;;;;;;;166.57;24.57;;;;;;;;;;5059938;28;20035;-88
2023/03/03 01:35:48;;;;;;;105.17;21.57;;;;;;;;;;5059930;28;20032;-88
2023/03/03 01:38:38;;;;;;;76.10;18.03;;;;;;;;;;5075280;28;20071;-88
2023/03/03 01:41:22;;;;;;;70.50;18.83;;;;;;;;;;5060160;28;20510;-88
2023/03/03 01:44:07;;;;;;;190.67;24.50;;;;;;;;;;5060117;28;20170;-88
2023/03/03 01:46:51;;;;;;;169.50;24.70;;;;;;;;;;5059504;28;20056;-88
2023/03/03 01:49:38;;;;;;;86.23;19.50;;;;;;;;;;5059905;28;20043;-88
2023/03/03 01:52:32;;;;;;;82.17;18.00;;;;;;;;;;5059829;28;20043;-89
2023/03/03 01:55:19;;;;;;;118.05;22.40;;;;;;;;;;5059881;28;20040;-88
2023/03/03 01:58:09;;;;;;;89.37;19.03;;;;;;;;;;5059474;28;20082;-88
2023/03/03 02:00:57;;;;;;;94.13;18.90;;;;;;;;;;5059374;28;20032;-87
2023/03/03 02:03:43;;;;;;;104.40;21.77;;;;;;;;;;5059724;28;20454;-89
2023/03/03 02:06:33;;;;;;;183.97;23.40;;;;;;;;;;5059441;28;20078;-88
2023/03/03 02:09:24;;;;;;;107.67;17.63;;;;;;;;;;5059662;28;20035;-88
2023/03/03 02:12:10;;;;;;;228.67;24.67;;;;;;;;;;5059206;28;20078;-88
2023/03/03 02:14:55;;;;;;;93.40;17.20;;;;;;;;;;5059003;28;20044;-88
2023/03/03 02:17:43;;;;;;;68.87;16.90;;;;;;;;;;5059359;28;20036;-88
2023/03/03 02:20:37;;;;;;;102.67;16.97;;;;;;;;;;5073510;28;20063;-88
2023/03/03 02:23:27;;;;;;;114.53;17.25;;;;;;;;;;5059387;28;20496;-88
2023/03/03 02:26:13;;;;;;;175.20;19.67;;;;;;;;;;5059165;28;20421;-88
2023/03/03 02:28:58;;;;;;;217.13;27.23;;;;;;;;;;5058794;28;20066;-88
2023/03/03 02:31:42;;;;;;;131.83;16.57;;;;;;;;;;5058998;28;20102;-88
2023/03/03 02:34:27;;;;;;;157.20;20.20;;;;;;;;;;5059011;28;20574;-88
2023/03/03 02:37:11;;;;;;;199.57;21.20;;;;;;;;;;5058662;28;20056;-88
2023/03/03 02:39:56;;;;;;;189.73;21.60;;;;;;;;;;5058533;28;20040;-88
2023/03/03 02:42:41;;;;;;;126.37;19.47;;;;;;;;;;5058894;28;20393;-88
2023/03/03 02:45:26;;;;;;;244.20;23.73;;;;;;;;;;5058387;28;20055;-88
2023/03/03 02:48:11;;;;;;;269.80;27.50;;;;;;;;;;5050694;28;20107;-88
2023/03/03 02:50:55;;;;;;;89.10;15.80;;;;;;;;;;5052497;28;20405;-88
2023/03/03 02:53:45;;;;;;;180.77;19.93;;;;;;;;;;5038822;28;20444;-88
2023/03/03 02:56:30;;;;;;;126.57;15.60;;;;;;;;;;5052909;28;20083;-88
2023/03/03 02:59:15;;;;;;;143.83;17.47;;;;;;;;;;5052352;28;20094;-88
2023/03/03 03:02:00;;;;;;;224.30;20.87;;;;;;;;;;5052269;28;20031;-89
2023/03/03 03:04:52;;;;;;;194.27;20.53;;;;;;;;;;5052649;28;20032;-88
2023/03/03 03:07:39;;;;;;;205.23;20.80;;;;;;;;;;5052462;28;20135;-88
2023/03/03 03:10:24;;;;;;;209.90;17.47;;;;;;;;;;5052628;28;20119;-88
2023/03/03 03:13:08;;;;;;;181.40;19.20;;;;;;;;;;5052304;28;20165;-88
2023/03/03 03:15:53;;;;;;;256.07;22.27;;;;;;;;;;5052217;28;20127;-92
2023/03/03 03:18:41;;;;;;;161.97;19.20;;;;;;;;;;5052426;28;20527;-88
2023/03/03 03:21:25;;;;;;;161.73;16.13;;;;;;;;;;5052320;28;20074;-88
2023/03/03 03:24:10;;;;;;;101.30;14.50;;;;;;;;;;5051998;28;20036;-88
2023/03/03 03:27:02;;;;;;;107.33;14.97;;;;;;;;;;5051962;28;20109;-92
2023/03/03 03:30:04;;;;;;;76.57;13.40;;;;;;;;;;5052930;28;20036;-88
2023/03/03 03:32:49;;;;;;;122.90;13.17;;;;;;;;;;5052273;28;20527;-88
2023/03/03 03:35:34;;;;;;;224.17;19.33;;;;;;;;;;5052179;28;20388;-88
2023/03/03 03:38:22;;;;;;;100.80;13.20;;;;;;;;;;5051733;28;20036;-93
2023/03/03 03:41:07;;;;;;;105.80;15.23;;;;;;;;;;5052708;28;20055;-89
2023/03/03 03:43:52;;;;;;;164.30;17.93;;;;;;;;;;5051936;28;20039;-88
2023/03/03 03:46:39;;;;;;;105.27;13.97;;;;;;;;;;5054942;28;20094;-88
2023/03/03 03:49:24;;;;;;;158.87;18.77;;;;;;;;;;5072605;28;20450;-88
2023/03/03 03:52:09;;;;;;;171.03;18.00;;;;;;;;;;5057531;28;20396;-88
2023/03/03 03:54:53;;;;;;;122.00;15.77;;;;;;;;;;5057584;28;20044;-88
2023/03/03 03:57:40;;;;;;;244.13;19.60;;;;;;;;;;5057600;28;20043;-87
2023/03/03 04:00:25;;;;;;;190.87;19.10;;;;;;;;;;5057399;28;20043;-87
2023/03/03 04:03:13;;;;;;;110.93;14.23;;;;;;;;;;5057219;28;20077;-88
2023/03/03 04:05:58;;;;;;;179.23;18.60;;;;;;;;;;5072658;28;20075;-87
2023/03/03 04:08:42;;;;;;;201.13;22.13;;;;;;;;;;5057417;28;20499;-88
2023/03/03 04:11:29;;;;;;;161.33;15.33;;;;;;;;;;5057627;28;20504;-87
2023/03/03 04:14:14;;;;;;;153.13;17.63;;;;;;;;;;5057634;28;20499;-87
2023/03/03 04:17:01;;;;;;;173.33;18.47;;;;;;;;;;5057359;28;20039;-87
2023/03/03 04:19:46;;;;;;;131.23;13.30;;;;;;;;;;5057557;28;20090;-87
2023/03/03 04:22:34;;;;;;;179.50;17.00;;;;;;;;;;5057282;28;20508;-89
2023/03/03 04:25:19;;;;;;;228.10;17.57;;;;;;;;;;5056962;28;20492;-87
2023/03/03 04:28:11;;;;;;;97.10;12.10;;;;;;;;;;5072110;28;20086;-89
2023/03/03 04:30:56;;;;;;;91.47;11.17;;;;;;;;;;5072422;28;20074;-88
2023/03/03 04:33:42;;;;;;;161.37;13.87;;;;;;;;;;5057291;28;20113;-88
2023/03/03 04:36:27;;;;;;;141.97;13.27;;;;;;;;;;5056979;28;20541;-87
2023/03/03 04:39:12;;;;;;;207.20;22.47;;;;;;;;;;5072026;28;20071;-88
2023/03/03 04:41:57;;;;;;;70.10;11.83;;;;;;;;;;5057178;28;20507;-88
2023/03/03 04:44:42;;;;;;;85.97;10.63;;;;;;;;;;5061307;28;20442;-89
2023/03/03 04:47:26;;;;;;;87.00;12.50;;;;;;;;;;5060389;28;20130;-88
2023/03/03 04:50:11;;;;;;;134.70;12.93;;;;;;;;;;5075831;28;20056;-88
2023/03/03 04:52:58;;;;;;;216.57;21.93;;;;;;;;;;5060955;28;20093;-88
2023/03/03 04:55:43;;;;;;;269.37;19.67;;;;;;;;;;5076217;28;20093;-88
2023/03/03 04:58:27;;;;;;;113.90;10.37;;;;;;;;;;5060549;28;20085;-88
2023/03/03 05:01:17;;;;;;;158.27;15.20;;;;;;;;;;5060504;28;20043;-88
2023/03/03 05:04:12;;;;;;;122.13;9.67;;;;;;;;;;5075903;28;20039;-88
2023/03/03 05:06:57;;;;;;;97.13;10.13;;;;;;;;;;5060651;28;20039;-89
2023/03/03 05:09:41;;;;;;;201.07;19.57;;;;;;;;;;5060711;28;20144;-88
2023/03/03 05:12:26;;;;;;;123.20;16.27;;;;;;;;;;5060213;28;20106;-88
2023/03/03 05:15:11;;;;;;;99.20;9.93;;;;;;;;;;5060362;28;20117;-89
2023/03/03 05:17:55;;;;;;;133.23;12.27;;;;;;;;;;5060623;28;20499;-88
2023/03/03 05:20:41;;;;;;;154.07;15.10;;;;;;;;;;5060500;28;20100;-88
2023/03/03 05:23:31;;;;;;;123.40;13.40;;;;;;;;;;5060110;28;20071;-89
2023/03/03 05:26:15;;;;;;;132.90;13.70;;;;;;;;;;5059958;28;20063;-88
2023/03/03 05:29:03;;;;;;;159.20;15.30;;;;;;;;;;5060386;28;20499;-89
2023/03/03 05:31:50;;;;;;;99.00;11.67;;;;;;;;;;5060490;28;20047;-88
2023/03/03 05:34:34;;;;;;;150.77;13.63;;;;;;;;;;5059933;28;20082;-88
2023/03/03 05:37:20;;;;;;;45.60;8.73;;;;;;;;;;5060107;28;20075;-88
2023/03/03 05:40:04;;;;;;;46.30;8.13;;;;;;;;;;5060112;28;20492;-89
2023/03/03 05:42:52;;;;;;;45.13;7.03;;;;;;;;;;5046161;28;20055;-88
2023/03/03 05:45:40;;;;;;;60.43;8.40;;;;;;;;;;5074988;28;20059;-87
2023/03/03 05:48:24;;;;;;;52.80;7.93;;;;;;;;;;5059268;28;20068;-88
2023/03/03 05:51:09;;;;;;;80.80;10.63;;;;;;;;;;5059963;28;20443;-88
2023/03/03 05:54:01;;;;;;;45.47;6.53;;;;;;;;;;5059812;28;20078;-88
2023/03/03 05:56:45;;;;;;;73.87;9.53;;;;;;;;;;5059732;28;20237;-87
2023/03/03 05:59:30;;;;;;;119.00;14.57;;;;;;;;;;5059522;28;20166;-88
2023/03/03 06:02:15;;;;;;;65.97;7.67;;;;;;;;;;5059598;28;20526;-87
2023/03/03 06:05:07;;;;;;;41.77;7.27;;;;;;;;;;5059709;28;20071;-87
2023/03/03 06:07:52;;;;;;;102.30;9.60;;;;;;;;;;5059557;28;20083;-87
2023/03/03 06:10:36;;;;;;;81.60;8.80;;;;;;;;;;5059096;28;20508;-88
2023/03/03 06:13:21;;;;;;;37.00;6.00;;;;;;;;;;5059043;28;20079;-88
2023/03/03 06:16:06;;;;;;;52.70;7.70;;;;;;;;;;5059541;28;20534;-87
2023/03/03 06:18:50;;;;;;;57.77;8.90;;;;;;;;;;5045446;28;20047;-88
2023/03/03 06:21:35;;;;;;;57.27;9.77;;;;;;;;;;5058978;28;20055;-87
2023/03/03 06:24:20;;;;;;;47.77;7.97;;;;;;;;;;5059220;28;20078;-88
2023/03/03 06:27:07;;;;;;;42.70;7.83;;;;;;;;;;5059230;28;20043;-87
2023/03/03 06:29:59;;;;;;;107.83;9.67;;;;;;;;;;5059234;28;20089;-88
2023/03/03 06:32:44;;;;;;;55.93;8.43;;;;;;;;;;5058700;28;20078;-88
2023/03/03 06:35:31;;;;;;;42.70;6.67;;;;;;;;;;5073884;28;20082;-88
2023/03/03 06:38:16;;;;;;;54.60;11.33;;;;;;;;;;5074240;28;20040;-88
2023/03/03 06:41:03;;;;;;;83.10;10.10;;;;;;;;;;5058776;28;20059;-87
2023/03/03 06:43:47;;;;;;;95.97;13.20;;;;;;;;;;5058574;28;20166;-89
2023/03/03 06:46:32;;;;;;;104.60;12.27;;;;;;;;;;5058463;28;20050;-88
2023/03/03 06:49:19;;;;;;;99.20;12.20;;;;;;;;;;5058621;28;20516;-88
2023/03/03 06:52:23;;;;;;;55.90;9.33;;;;;;;;;;5058765;28;20039;-88
2023/03/03 06:55:13;;;;;;;90.53;10.90;;;;;;;;;;5073822;28;20035;-88
2023/03/03 06:58:08;;;;;;;53.00;8.23;;;;;;;;;;5058599;28;20086;-88
2023/03/03 07:01:00;;;;;;;87.67;13.10;;;;;;;;;;5058591;28;20031;-88
2023/03/03 07:03:45;;;;;;;138.47;13.43;;;;;;;;;;5058100;28;20039;-88
2023/03/03 07:06:29;;;;;;;156.80;15.40;;;;;;;;;;5072681;28;20047;-87
2023/03/03 07:09:22;;;;;;;96.37;10.93;;;;;;;;;;5058393;28;20093;-88
2023/03/03 07:12:11;;;;;;;94.67;13.57;;;;;;;;;;5053201;28;20036;-88
2023/03/03 07:15:01;;;;;;;200.37;16.17;;;;;;;;;;5056771;28;20074;-88
2023/03/03 07:17:47;;;;;;;83.50;8.30;;;;;;;;;;5055996;28;20078;-87
2023/03/03 07:20:35;;;;;;;123.27;15.90;;;;;;;;;;5070985;28;20058;-88
2023/03/03 07:23:27;;;;;;;105.63;14.03;;;1.00;99.90;;;;;;5057726;28;20044;-88
2023/03/03 07:26:21;;;;;;;128.57;13.43;;;1.00;99.90;;;;;;5057243;28;20070;-87
2023/03/03 07:29:20;;;;;;;84.90;11.38;;;;;;;;;;5057472;28;20098;-88
2023/03/03 07:32:15;;;;;;;52.83;10.03;;;;;;;;;;5057581;28;20039;-87
2023/03/03 07:34:59;;;;;;;;;;;1.00;99.90;;;;;;5058008;28;20511;-87
2023/03/03 07:37:44;;;;;;;31.13;7.82;;;;;;;;;;5072369;28;19934;-87
2023/03/03 07:40:31;;;;;;;104.87;11.33;;;;;;;;;;5057465;28;20039;-87
2023/03/03 07:43:36;;;;;;;66.03;9.87;;;;;;;;;;5057326;28;20047;-88
2023/03/03 07:46:21;;;;;;;31.63;6.90;;;;;;;;;;5057200;28;20469;-87
2023/03/03 07:49:14;;;;;;;37.13;8.80;;;;;;;;;;5057478;28;20519;-88
2023/03/03 07:51:59;;;;;;;57.10;8.67;;;;;;;;;;5072520;28;20044;-88
2023/03/03 07:54:45;;;;;;;64.30;10.53;;;;;;;;;;5072099;28;20081;-88
2023/03/03 07:57:36;;;;;;;60.03;11.70;;;;;;;;;;5072392;28;20066;-88
2023/03/03 08:00:20;;;;;;;46.40;9.37;;;;;;;;;;5057242;28;20074;-87
2023/03/03 08:03:10;;;;;;;57.03;9.87;;;;;;;;;;5057165;28;20534;-87
2023/03/03 08:05:54;;;;;;;53.23;9.03;;;;;;;;;;5056745;28;20098;-87
2023/03/03 08:08:42;;;;;;;80.47;12.27;;;;;;;;;;5071996;28;20043;-87
2023/03/03 08:11:27;;;;;;;36.73;8.00;;;;;;;;;;5057130;28;20231;-86
2023/03/03 08:14:13;;;;;;;43.53;8.53;;;;;;;;;;5057154;28;20059;-87
2023/03/03 08:16:58;;;;;;;25.33;8.33;;;;;;;;;;5056723;28;20052;-87
2023/03/03 08:19:42;;;;;;;27.03;7.80;;;;;;;;;;5060906;28;20545;-88
2023/03/03 08:22:35;;;;;;;30.33;7.53;;;;;;;;;;5076357;28;20075;-87
2023/03/03 08:25:20;;;;;;;13.00;6.20;;;;;;;;;;5060994;28;20031;-87
2023/03/03 08:28:05;;;;;;;11.13;7.07;;;;;;;;;;5060986;28;20044;-87
2023/03/03 08:30:50;;;;;;;9.83;6.30;;;;;;;;;;5060725;28;20116;-87
2023/03/03 08:33:34;;;;;;;8.57;5.30;;;;;;;;;;5046926;28;20039;-87
2023/03/03 08:36:19;;;;;;;9.90;5.57;;;;;;;;;;5060909;28;20503;-88
2023/03/03 08:39:04;;;;;;;9.90;5.77;;;;;;;;;;5061012;28;20039;-87
2023/03/03 08:41:48;;;;;;;9.00;5.60;;;;;;;;;;5060458;28;20106;-88
2023/03/03 08:44:33;;;;;;;10.70;6.03;;;;;;;;;;5060767;28;20559;-87
2023/03/03 08:47:18;;;;;;;8.30;5.60;;;;;;;;;;5060248;28;20055;-87
2023/03/03 08:50:02;;;;;;;10.17;6.20;;;;;;;;;;5060028;28;20043;-87
2023/03/03 08:52:47;;;;;;;8.67;5.73;;;;;;;;;;5046349;28;20039;-88
2023/03/03 08:55:32;;;;;;;10.80;6.00;;;;;;;;;;5060338;28;20114;-86
2023/03/03 08:58:21;;;;;;;11.17;5.27;;;;;;;;;;5060716;28;20392;-87
2023/03/03 09:01:06;;;;;;;11.00;5.73;;;;;;;;;;5075744;28;20086;-87
2023/03/03 09:04:00;;;;;;;10.87;6.20;;;;;;;;;;5060180;28;20119;-91
2023/03/03 09:06:47;;;;;;;9.80;6.13;;;;;;;;;;5060074;28;20105;-90
2023/03/03 09:09:31;;;;;;;12.97;6.87;;;;;;;;;;5060355;28;20042;-88
2023/03/03 09:12:22;;;;;;;10.13;6.47;;;;;;;;;;5060246;28;20046;-88
2023/03/03 09:15:24;;;;;;;9.53;6.40;;;;;;;;;;5060051;28;20035;-88
2023/03/03 09:18:11;;;;;;;9.17;6.43;;;;;;;;;;5075368;28;20086;-88
2023/03/03 09:20:56;;;;;;;10.07;6.20;;;;;;;;;;5074843;28;20098;-88
2023/03/03 09:23:41;;;;;;;9.40;5.80;;;;;;;;;;5075198;28;20048;-89
2023/03/03 09:26:45;;;;;;;9.50;5.97;;;3.20;99.90;;;;;;5075097;28;20047;-88
2023/03/03 09:29:31;;;;;;;10.10;6.23;;;;;;;;;;5059535;28;20052;-88
2023/03/03 09:32:41;;;;;;;10.43;6.33;;;;;;;;;;5059934;28;20120;-88
2023/03/03 09:35:26;;;;;;;8.80;5.90;;;;;;;;;;5059861;28;20070;-88
2023/03/03 09:38:30;;;;;;;12.60;6.47;;;;;;;;;;5059811;28;20526;-88
2023/03/03 09:41:15;;;;;;;9.93;6.07;;;;;;;;;;5059643;28;20086;-87
2023/03/03 09:44:18;;;;;;;10.93;6.30;;;;;;;;;;5074595;28;20040;-87
2023/03/03 09:47:17;;;;;;;9.90;6.17;;;3.60;99.90;;;;;;5059089;28;20117;-87
2023/03/03 09:50:14;;;;;;;10.53;6.07;;;;;;;;;;5059443;28;20576;-87
2023/03/03 09:53:05;;;;;;;11.43;5.93;;;;;;;;;;5059331;28;20039;-88
2023/03/03 09:56:07;;;;;;;11.17;5.83;;;;;;;;;;5074378;28;20093;-88
2023/03/03 09:59:26;;;;;;;7.97;5.70;;;3.80;99.90;;;;;;5059051;28;20057;-88
2023/03/03 10:02:14;;;;;;;10.03;5.20;;;;;;;;;;5074397;28;20094;-88
2023/03/03 10:05:12;;;;;;;7.53;5.47;;;;;;;;;;5074215;28;20100;-89
2023/03/03 10:08:34;;;;;;;10.53;5.83;;;4.20;99.90;;;;;;5074061;28;20424;-87
2023/03/03 10:11:19;;;;;;;9.50;5.43;;;;;;;;;;5074369;28;20040;-88
2023/03/03 10:14:19;;;;;;;10.97;5.93;;;4.40;99.90;;;;;;5073996;28;20067;-87
2023/03/03 10:17:41;;;;;;;9.47;5.57;;;4.60;99.90;;;;;;5073880;28;20039;-88
2023/03/03 10:20:33;;;;;;;12.27;5.93;;;;;;;;;;5074287;28;20066;-87
2023/03/03 10:23:45;;;;;;;10.60;5.00;;;4.80;99.90;;;;;;5074171;28;20040;-87
2023/03/03 10:26:48;;;;;;;8.55;5.40;;;;;;;;;;5058914;28;20044;-89
2023/03/03 10:29:33;;;;;;;8.43;5.23;;;;;;;;;;5058861;28;20415;-86
2023/03/03 10:32:17;;;;;;;6.27;4.23;;;;;;;;;;5058458;28;20039;-86
2023/03/03 10:35:07;;;;;;;8.55;4.57;;;;;;;;;;5058937;28;20173;-88
2023/03/03 10:38:02;;;;;;;9.77;5.03;;;;;;;;;;5073690;28;20093;-86
2023/03/03 10:40:52;;;;;;;6.90;4.22;;;;;;;;;;5072779;28;20082;-87
2023/03/03 10:43:55;;;;;;;9.15;4.63;;;;;;;;;;5061053;28;20114;-87
2023/03/03 10:46:54;;;;;;;9.68;4.15;;;;;;;;;;5074586;28;20126;-88
2023/03/03 10:50:03;;;;;;;6.88;3.72;;;;;;;;;;5058167;28;20068;-88
2023/03/03 10:52:56;;;;;;;7.28;3.40;;;;;;;;;;5058688;28;20071;-89
2023/03/03 10:56:03;;;;;;;6.15;3.47;;;;;;;;;;5073999;28;20487;-92
2023/03/03 10:58:56;;;;;;;12.70;4.88;;;;;;;;;;5058675;28;20124;-87
2023/03/03 11:01:43;;;;;;;4.88;2.95;;;;;;;;;;5058600;28;20039;-88
2023/03/03 11:04:56;;;;;;;5.53;3.13;;;6.70;99.90;;;;;;5073653;28;20036;-85
2023/03/03 11:07:45;;;;;;;8.07;3.10;;;;;;;;;;5073644;28;20086;-87
2023/03/03 11:10:36;;;;;;;7.43;3.35;;;;;;;;;;5073600;28;20042;-87
2023/03/03 11:13:38;;;;;;;5.30;2.78;;;;;;;;;;5073130;28;20055;-91
2023/03/03 11:16:41;;;;;;;7.75;2.70;;;;;;;;;;5058243;28;20102;-87
2023/03/03 11:19:40;;;;;;;7.35;2.72;;;;;;;;;;5073279;28;20086;-90
2023/03/03 11:22:24;;;;;;;6.03;2.50;;;;;;;;;;5072847;28;20078;-88
2023/03/03 11:25:41;;;;;;;7.15;2.70;;;7.40;99.90;;;;;;5057842;28;20035;-87
2023/03/03 11:28:37;;;;;;;5.60;2.20;;;;;;;;;;5057756;28;20039;-88
2023/03/03 11:31:21;;;;;;;7.05;2.45;;;;;;;;;;5057686;28;20368;-88
2023/03/03 11:34:16;;;;;;;5.50;1.90;;;;;;;;;;5057865;28;20068;-87
2023/03/03 11:37:03;;;;;;;3.78;2.45;;;;;;;;;;5057856;28;20170;-86
2023/03/03 11:39:49;;;;;;;4.20;2.20;;;;;;;;;;5057940;28;20055;-88
2023/03/03 11:42:53;;;;;;;5.00;2.25;;;;;;;;;;5057912;28;20528;-91
2023/03/03 11:45:43;;;;;;;5.38;1.92;;;;;;;;;;5057890;28;20062;-87
2023/03/03 11:49:26;;;;;;;4.78;2.83;;;7.80;99.90;;;;;;5057169;28;20055;-88
2023/03/03 11:52:13;;;;;;;5.15;2.30;;;;;;;;;;4971680;28;20065;-89
2023/03/03 11:58:36;;;;;;;4.07;1.52;;;;;;;;;;5072608;28;20035;-91
2023/03/03 12:01:37;;;;;;;7.18;1.77;;;;;;;;;;5071012;28;20043;-88
2023/03/03 12:04:25;;;;;;;4.93;1.65;;;;;;;;;;5056020;28;20436;-89
2023/03/03 12:07:13;;;;;;;4.03;1.80;;;;;;;;;;5071342;28;20071;-87
2023/03/03 12:09:57;;;;;;;5.47;1.45;;;;;;;;;;5070260;28;20093;-87
2023/03/03 12:12:52;;;;;;;3.75;1.60;;;;;;;;;;5057249;28;20055;-87
2023/03/03 12:15:44;;;;;;;4.07;1.27;;;;;;;;;;5055537;28;20117;-87
2023/03/03 12:18:40;;;;;;;5.35;1.33;;;;;;;;;;5056793;28;20508;-87
2023/03/03 12:22:02;;;;;;;4.30;1.13;;;7.90;99.90;;;;;;5072123;28;20039;-87
2023/03/03 12:25:20;;;;;;;4.90;1.10;;;7.90;99.90;;;;;;5057165;28;20035;-87
2023/03/03 12:28:05;;;;;;;7.93;1.65;;;;;;;;;;5057048;28;20083;-87
2023/03/03 12:31:05;;;;;;;2.25;0.90;;;;;;;;;;5057070;28;20546;-88
2023/03/03 12:34:10;;;;;;;2.80;1.30;;;;;;;;;;5057117;28;20196;-88
2023/03/03 12:37:08;;;;;;;3.00;1.05;;;;;;;;;;5053108;28;20048;-89
2023/03/03 12:39:55;;;;;;;4.78;1.13;;;;;;;;;;5056843;28;20043;-88
2023/03/03 12:42:52;;;;;;;5.22;1.08;;;;;;;;;;5056981;28;20496;-87
2023/03/03 12:45:48;;;;;;;10.10;1.63;;;;;;;;;;5057730;28;20091;-94
2023/03/03 12:48:40;;;;;;;5.60;1.63;;;;;;;;;;5055676;28;20144;-88
2023/03/03 12:51:26;;;;;;;4.07;1.13;;;;;;;;;;5070352;28;20170;-88
2023/03/03 12:54:40;;;;;;;6.43;0.93;;;;;;;;;;5071270;28;20082;-88
2023/03/03 12:57:42;;;;;;;4.97;1.00;;;;;;;;;;5063261;28;20090;-88
2023/03/03 13:00:36;;;;;;;5.07;1.77;;;;;;;;;;5056352;28;20546;-87
2023/03/03 13:03:40;;;;;;;4.25;1.20;;;;;;;;;;5057131;28;20078;-86
2023/03/03 13:06:25;;;;;;;7.90;1.30;;;;;;;;;;5060146;28;20039;-87
2023/03/03 13:09:18;;;;;;;10.20;1.20;;;;;;;;;;5075695;28;20098;-87
2023/03/03 13:12:18;;;;;;;6.75;1.17;;;;;;;;;;5075542;28;20071;-87
2023/03/03 13:15:03;;;;;;;4.35;1.05;;;;;;;;;;5075469;28;20041;-88
2023/03/03 13:17:54;;;;;;;4.57;0.85;;;;;;;;;;5060372;28;20039;-88
2023/03/03 13:21:04;;;;;;;6.30;1.75;;;8.20;99.90;;;;;;5059843;28;20040;-87
2023/03/03 13:24:15;;;;;;;9.13;1.48;;;;;;;;;;5074794;28;20110;-88
2023/03/03 13:27:09;;;;;;;4.47;1.30;;;;;;;;;;5059870;28;20082;-88
2023/03/03 13:30:00;;;;;;;3.97;1.58;;;;;;;;;;5075449;28;20081;-88
2023/03/03 13:32:44;;;;;;;3.80;1.60;;;;;;;;;;5060445;28;20089;-87
2023/03/03 13:35:32;;;;;;;4.05;1.30;;;;;;;;;;5075207;28;20450;-88
2023/03/03 13:38:22;;;;;;;5.63;1.10;;;;;;;;;;5075378;28;20445;-87
2023/03/03 13:41:15;;;;;;;5.25;1.38;;;9.40;99.90;;;;;;5060095;28;20401;-87
2023/03/03 13:44:19;;;;;;;8.30;1.52;;;;;;;;;;5075444;28;20441;-87
2023/03/03 13:47:04;;;;;;;5.07;1.55;;;;;;;;;;5059642;28;20044;-87
2023/03/03 13:50:07;;;;;;;4.30;1.30;;;8.90;99.90;;;;;;5060002;28;20422;-88
2023/03/03 13:52:55;;;;;;;7.32;1.50;;;;;;;;;;5059991;28;20078;-88
2023/03/03 13:55:43;;;;;;;8.90;2.22;;;;;;;;;;5059451;28;20519;-87
2023/03/03 13:58:54;;;;;;;11.05;1.95;;;;;;;;;;5059365;28;20546;-87
2023/03/03 14:02:08;;;;;;;7.65;1.58;;;;;;;;;;5043317;28;20052;-87
2023/03/03 14:04:54;;;;;;;8.45;1.90;;;;;;;;;;5051382;28;20047;-87
2023/03/03 14:07:49;;;;;;;10.73;1.63;;;;;;;;;;5059237;28;20120;-87
2023/03/03 14:10:35;;;;;;;11.45;1.60;;;;;;;;;;5059216;28;20043;-87
2023/03/03 14:13:31;;;;;;;8.25;1.45;;;;;;;;;;5059636;28;20036;-87
2023/03/03 14:16:21;;;;;;;7.53;1.38;;;;;;;;;;5058437;28;20086;-88
2023/03/03 14:19:16;;;;;;;9.30;1.70;;;;;;;;;;5074679;28;20043;-85
2023/03/03 14:22:04;;;;;;;11.82;1.83;;;;;;;;;;5074405;28;20089;-88
2023/03/03 14:25:07;;;;;;;10.10;1.67;;;;;;;;;;5074185;28;20044;-87
2023/03/03 14:28:02;;;;;;;7.25;1.80;;;;;;;;;;5074342;28;20452;-87
2023/03/03 14:30:47;;;;;;;7.72;1.55;;;;;;;;;;5074006;28;20483;-87
2023/03/03 14:33:32;;;;;;;10.13;1.85;;;;;;;;;;5058843;28;20170;-86
2023/03/03 14:36:24;;;;;;;8.15;2.13;;;;;;;;;;5059139;28;20039;-89
2023/03/03 14:39:32;;;;;;;12.80;2.00;;;;;;;;;;5074219;28;20077;-88
2023/03/03 14:42:35;;;;;;;18.65;2.58;;;;;;;;;;5058762;28;20400;-87
2023/03/03 14:45:23;;;;;;;15.30;2.42;;;;;;;;;;5073998;28;20063;-88
2023/03/03 14:48:11;;;;;;;16.30;2.80;;;;;;;;;;5052825;28;20063;-87
2023/03/03 14:50:59;;;;;;;20.50;3.80;;;;;;;;;;5054026;28;20401;-87
2023/03/03 14:53:47;;;;;;;17.50;3.47;;;;;;;;;;5053622;28;20036;-88
2023/03/03 14:56:33;;;;;;;15.80;3.00;;;;;;;;;;5053592;28;20040;-88
2023/03/03 14:59:19;;;;;;;14.40;2.63;;;;;;;;;;5052861;28;20535;-87
2023/03/03 15:02:13;;;;;;;15.82;4.13;;;;;;;;;;5053103;28;20087;-85
2023/03/03 15:05:24;;;;;;;17.25;2.75;;;7.90;99.90;;;;;;5053097;28;20039;-88
2023/03/03 15:08:13;;;;;;;13.80;2.65;;;7.80;99.90;;;;;;5053732;28;20048;-88
2023/03/03 15:11:11;;;;;;;15.20;2.85;;;;;;;;;;5052605;28;20079;-88
2023/03/03 15:14:14;;;;;;;14.38;3.47;;;;;;;;;;5053508;28;20534;-88
2023/03/03 15:17:16;;;;;;;16.25;2.60;;;;;;;;;;5053832;28;20090;-86
2023/03/03 15:20:00;;;;;;;14.32;2.85;;;;;;;;;;5052441;28;20122;-84
2023/03/03 15:22:52;;;;;;;13.40;2.90;;;;;;;;;;5052022;28;20036;-88
2023/03/03 15:25:57;;;;;;;15.75;3.47;;;;;;;;;;5052207;28;20081;-86
2023/03/03 15:29:00;;;;;;;20.83;2.92;;;7.50;99.90;;;;;;5052064;28;20087;-87
2023/03/03 15:32:13;;;;;;;16.15;3.08;;;;;;;;;;5052098;28;20067;-87
2023/03/03 15:35:04;;;;;;;15.25;4.20;;;;;;;;;;5053418;28;20036;-87
2023/03/03 15:38:07;;;;;;;15.30;2.40;;;;;;;;;;5053294;28;20048;-87
2023/03/03 15:57:47;;;;;;;5.70;1.55;;;;;;;;;;5073956;28;20472;-80
2023/03/03 16:01:09;;;;;;;3.67;1.30;;;13.20;99.90;;;;;;5069429;28;20384;-79
2023/03/03 16:04:04;;;;;;;6.05;2.13;;;;;;;;;;5069169;28;20090;-79
2023/03/03 16:07:24;;;;;;;5.63;1.40;;;14.40;99.90;;;;;;5069255;28;20039;-79
2023/03/03 16:10:27;;;;;;;6.72;1.40;;;;;;;;;;5061660;28;20044;-78
2023/03/03 16:13:22;;;;;;;6.75;1.38;;;15.00;99.90;;;;;;5059566;28;20044;-78
2023/03/03 16:17:46;;;;;;;4.78;1.58;;;15.40;99.90;;;;;;5089698;28;20427;-78
2023/03/03 16:21:00;;;;;;;4.43;1.60;;;15.60;99.90;;;;;;5089710;28;20135;-79
2023/03/03 16:23:50;;;;;;;8.23;1.60;;;15.90;99.90;;;;;;5089344;28;20491;-81
2023/03/03 16:26:35;;;;;;;7.32;1.20;;;;;;;;;;5089704;28;20265;-80
2023/03/03 16:29:56;;;;;;;4.00;1.10;;;16.50;99.90;;;;;;5088622;28;20034;-82
2023/03/03 16:32:47;;;;;;;6.65;1.63;;;16.30;99.90;;;;;;5089480;28;20043;-78
2023/03/03 16:35:41;;;;;;;3.30;1.17;;;16.40;99.90;;;;;;5089298;28;20051;-77
